RJTY/OKO METAR and TAF weather

Enter ICAO airport designator
Station Type Date Time Source
RJTY METAR 2019/02/21 11:56 UTC NOAA

RJTY 211156Z AUTO 02007KT 10SM FEW070 OVC085 07/M04 A3017 RMK AO2 SLP224 T00681040 10132 20068 52019 FZRANO $


Station Type Date Time Source
RJTY Decoded METAR 2019/02/21 11:56 UTC NOAA

Yokota Ab, Japan (RJTY) 35-45N 139-21E 142M
Feb 21, 2019 - 06:56 AM EST / 2019.02.21 1156 UTC
Wind: from the NNE (020 degrees) at 8 MPH (7 KT):0
Visibility: 10 mile(s):0
Sky conditions: overcast
Temperature: 44.2 F (6.8 C)
Dew Point: 24.8 F (-4.0 C)
Relative Humidity: 46%
Pressure (altimeter): 30.17 in. Hg (1021 hPa)
Pressure tendency: 0.06 inches (1.9 hPa) higher than three hours ago
ob: RJTY 211156Z AUTO 02007KT 10SM FEW070 OVC085 07/M04 A3017 RMK AO2 SLP224 T00681040 10132 20068 52019 FZRANO
cycle: 12

Station Type Date Time Source
RJTY TAF 2019/02/21 09:30 UTC NOAA

TAF TAF
AMD RJTY 210926Z 2109/2211 04009KT 9999 FEW080 QNH3000INS
BECMG 2112/2113 VRB06KT 9999 FEW080 QNH3010INS
BECMG 2117/2118 VRB06KT 9999 BKN030 QNH3010INS TX09/2109Z TN02/2118Z


Example: see airport list